Time;durP1;ratioP1;P1;durP2;ratioP2;P2;SDS_P1;SDS_P2;PMS_P1;PMS_P2;Temp;Humidity;BMP_temperature;BMP_pressure;BME280_temperature;BME280_humidity;BME280_pressure;Samples;Min_cycle;Max_cycle;Signal;HPM_P1;HPM_P2
2023/06/16 00:01:41;;;;;;;8.13;5.47;;;;;;;24.94;83.74;97698.88;4977723;28;20121;-69
2023/06/16 00:04:12;;;;;;;7.80;5.55;;;;;;;24.94;83.75;97705.09;4977247;28;20065;-69
2023/06/16 00:06:47;;;;;;;11.13;5.57;;;;;;;24.95;83.97;97703.19;4959663;28;20050;-75
2023/06/16 00:09:21;;;;;;;9.23;5.70;;;;;;;24.96;84.33;97708.28;4958188;28;20416;-71
2023/06/16 00:11:51;;;;;;;9.15;6.15;;;;;;;24.99;84.57;97707.69;4961186;28;20137;-70
2023/06/16 00:14:20;;;;;;;14.13;8.68;;;;;;;25.01;84.00;97691.91;4977721;28;20050;-70
2023/06/16 00:16:52;;;;;;;16.98;9.43;;;;;;;25.04;83.65;97690.50;4976465;28;20042;-69
2023/06/16 00:19:27;;;;;;;15.98;9.70;;;;;;;25.09;84.65;97706.63;4975458;28;20075;-70
2023/06/16 00:21:59;;;;;;;15.88;10.00;;;;;;;25.11;84.60;97711.72;4976421;28;20098;-70
2023/06/16 00:24:29;;;;;;;14.23;9.45;;;;;;;25.15;84.76;97713.50;4972947;28;20430;-69
2023/06/16 00:27:01;;;;;;;10.77;7.30;;;;;;;25.19;84.50;97708.25;4977394;28;20402;-72
2023/06/16 00:29:30;;;;;;;16.33;7.65;;;;;;;25.21;84.25;97712.25;4960286;28;20057;-70
2023/06/16 00:31:59;;;;;;;11.27;7.10;;;;;;;25.23;84.88;97707.31;4952217;28;20128;-69
2023/06/16 00:34:28;;;;;;;19.20;7.82;;;;;;;25.25;84.38;97705.09;4963674;28;20055;-69
2023/06/16 00:36:58;;;;;;;15.30;7.25;;;;;;;25.29;84.52;97706.06;4963620;28;20042;-69
2023/06/16 00:39:28;;;;;;;13.48;7.88;;;;;;;25.35;85.38;97704.03;4965517;28;20050;-68
2023/06/16 00:41:58;;;;;;;11.07;7.63;;;;;;;25.39;85.57;97697.69;4977249;28;20117;-70
2023/06/16 00:44:28;;;;;;;15.20;8.35;;;;;;;25.43;84.87;97697.84;4958665;28;20076;-68
2023/06/16 00:47:00;;;;;;;13.05;8.95;;;;;;;25.47;84.80;97698.81;4966261;28;20072;-69
2023/06/16 00:49:30;;;;;;;13.45;9.52;;;;;;;25.51;85.21;97710.63;4967263;28;20062;-70
2023/06/16 00:52:01;;;;;;;12.32;8.80;;;;;;;25.56;84.78;97718.66;4975374;28;20752;-70
2023/06/16 00:54:32;;;;;;;14.52;8.65;;;;;;;25.59;84.92;97722.66;4960949;28;20046;-71
2023/06/16 00:57:02;;;;;;;13.95;9.70;;;;;;;25.62;84.83;97725.56;4968531;28;20121;-72
2023/06/16 00:59:31;;;;;;;16.58;9.98;;;;;;;25.63;84.43;97729.03;4958000;28;20065;-70
2023/06/16 01:02:00;;;;;;;16.15;10.85;;;;;;;25.68;84.13;97739.75;4963853;28;20051;-70
2023/06/16 01:04:31;;;;;;;20.08;11.05;;;;;;;25.68;83.77;97739.75;4965494;28;20056;-70
2023/06/16 01:07:13;;;;;;;17.60;11.93;;;;;;;25.73;84.20;97745.03;4966062;28;20144;-71
2023/06/16 01:09:48;;;;;;;19.05;12.27;;;;;;;25.73;83.91;97726.84;4982962;28;20163;-72
2023/06/16 01:12:23;;;;;;;23.88;14.45;;;;;;;25.72;83.40;97719.03;4967651;28;20046;-70
2023/06/16 01:15:03;;;;;;;23.38;14.30;;;;;;;25.71;82.91;97698.47;4966786;28;20042;-70
2023/06/16 01:17:39;;;;;;;22.55;14.07;;;;;;;25.74;83.27;97686.97;4967294;28;20631;-70
2023/06/16 01:20:19;;;;;;;23.95;14.88;;;;;;;25.79;84.16;97689.53;4960224;28;20537;-72
2023/06/16 01:22:55;;;;;;;23.02;14.65;;;;;;;25.82;84.55;97689.69;4976382;28;20042;-70
2023/06/16 01:25:28;;;;;;;21.73;14.43;;;;;;;25.87;84.03;97703.13;4970839;28;20053;-72
2023/06/16 01:28:00;;;;;;;23.70;15.30;;;;;;;25.95;84.19;97725.97;4967781;28;20046;-72
2023/06/16 01:30:32;;;;;;;23.75;14.75;;;;;;;26.02;84.01;97758.06;4980058;28;20129;-71
2023/06/16 01:33:04;;;;;;;24.42;15.00;;;;;;;26.09;84.06;97797.19;4981754;28;20355;-71
2023/06/16 01:35:35;;;;;;;26.23;15.18;;;;;;;26.09;84.27;97802.63;4967662;28;20046;-70
2023/06/16 01:38:05;;;;;;;28.45;15.77;;;;;;;26.13;84.39;97795.44;4984835;28;20054;-72
2023/06/16 01:40:37;;;;;;;32.92;18.98;;;;;;;26.17;83.74;97792.91;4978544;28;20038;-70
2023/06/16 01:43:08;;;;;;;32.38;18.15;;;;;;;26.26;83.03;97796.47;4964522;28;20435;-72
2023/06/16 01:45:39;;;;;;;25.70;18.08;;;;;;;26.44;82.46;97783.72;4980523;28;20043;-74
2023/06/16 01:48:09;;;;;;;28.90;17.67;;;;;;;26.66;81.56;97787.09;4968808;28;20074;-70
2023/06/16 01:50:38;;;;;;;23.38;14.52;;;;;;;26.87;80.11;97789.19;4987510;28;20069;-71
2023/06/16 01:53:07;;;;;;;22.33;12.68;;;;;;;27.07;79.17;97777.69;4965122;28;20047;-72
2023/06/16 01:55:36;;;;;;;21.02;12.57;;;;;;;27.00;79.31;97783.59;4967097;28;20145;-72
2023/06/16 01:58:06;;;;;;;27.27;13.70;;;;;;;26.92;79.58;97799.91;4968424;28;20058;-70
2023/06/16 02:00:43;;;;;;;22.73;13.70;;;;;;;26.85;80.09;97802.28;4956541;28;20054;-71
2023/06/16 02:03:19;;;;;;;24.50;14.68;;;;;;;26.79;80.81;97805.16;4972062;28;20116;-69
2023/06/16 02:05:52;;;;;;;25.42;16.05;;;;;;;26.80;80.78;97811.41;4973962;28;20058;-70
2023/06/16 02:08:27;;;;;;;33.58;16.83;;;;;;;26.87;80.70;97809.00;4968328;28;20046;-70
2023/06/16 02:10:58;;;;;;;23.50;15.00;;;;;;;27.20;79.96;97801.97;4977451;28;20050;-69
2023/06/16 02:13:28;;;;;;;28.10;13.75;;;;;;;27.36;79.14;97783.22;4967783;28;20055;-72
2023/06/16 02:15:59;;;;;;;29.88;14.13;;;;;;;27.26;78.52;97797.16;4969376;28;20399;-69
2023/06/16 02:18:32;;;;;;;37.40;14.40;;;;;;;27.10;79.39;97807.72;4969063;28;20129;-69
2023/06/16 02:21:03;;;;;;;24.77;14.10;;;;;;;26.95;80.04;97827.25;4963880;28;20151;-71
2023/06/16 02:23:33;;;;;;;26.52;14.80;;;;;;;26.83;81.04;97835.19;4968820;28;20388;-71
2023/06/16 02:26:02;;;;;;;33.65;15.18;;;;;;;26.72;81.83;97826.59;4962756;28;20050;-71
2023/06/16 02:28:31;;;;;;;25.52;17.17;;;;;;;26.57;82.07;97797.16;4968642;28;20043;-69
2023/06/16 02:31:01;;;;;;;26.08;16.02;;;;;;;26.43;82.18;97780.19;4968882;28;20507;-71
2023/06/16 02:33:32;;;;;;;25.30;16.35;;;;;;;26.38;83.38;97768.72;4984430;28;20046;-72
2023/06/16 02:36:01;;;;;;;26.02;17.92;;;;;;;26.29;83.81;97753.19;4971188;28;20043;-69
2023/06/16 02:38:31;;;;;;;28.80;18.60;;;;;;;26.28;84.47;97756.25;4979460;28;20112;-72
2023/06/16 02:41:00;;;;;;;28.83;18.17;;;;;;;26.21;83.85;97761.31;4969044;28;20390;-70
2023/06/16 02:43:29;;;;;;;30.63;18.42;;;;;;;26.21;84.36;97769.47;4981519;28;20050;-70
2023/06/16 02:46:01;;;;;;;27.13;17.95;;;;;;;26.25;85.37;97779.38;4978857;28;20085;-72
2023/06/16 02:48:31;;;;;;;31.23;20.33;;;;;;;26.28;85.26;97780.66;4967716;28;20105;-71
2023/06/16 02:51:00;;;;;;;30.40;19.55;;;;;;;26.34;85.68;97769.31;4955060;28;20054;-72
2023/06/16 02:53:30;;;;;;;30.83;19.80;;;;;;;26.89;83.19;97776.09;4946712;28;20046;-70
2023/06/16 02:56:02;;;;;;;34.70;19.95;;;;;;;27.65;79.97;97772.44;4954280;28;20051;-74
2023/06/16 02:58:34;;;;;;;27.95;18.80;;;;;;;28.28;76.01;97767.97;4959641;28;20105;-70
2023/06/16 03:01:05;;;;;;;27.48;17.50;;;;;;;28.74;72.83;97756.13;4956292;28;20379;-70
2023/06/16 03:03:36;;;;;;;27.42;17.63;;;;;;;29.03;70.52;97755.22;4978842;28;20133;-71
2023/06/16 03:06:24;;;;;;;27.02;17.10;;;;;;;29.22;68.81;97760.97;4953290;28;20046;-70
2023/06/16 03:08:53;;;;;;;23.45;15.95;;;;;;;29.31;68.67;97755.44;4962554;28;20069;-70
2023/06/16 03:11:23;;;;;;;26.77;16.65;;;;;;;29.30;69.52;97748.38;4978317;28;20100;-69
2023/06/16 03:13:55;;;;;;;24.52;15.85;;;;;;;29.29;69.25;97763.97;4960220;28;20051;-70
2023/06/16 03:16:27;;;;;;;24.92;16.33;;;;;;;29.56;68.58;97772.66;4966565;28;20047;-68
2023/06/16 03:19:00;;;;;;;26.35;15.40;;;;;;;29.82;68.08;97773.16;4980661;28;20050;-68
2023/06/16 03:21:30;;;;;;;27.70;16.55;;;;;;;29.89;67.00;97778.88;4974981;28;20113;-68
2023/06/16 03:24:00;;;;;;;24.75;15.40;;;;;;;29.91;66.35;97787.53;4967772;28;20046;-67
2023/06/16 03:26:31;;;;;;;21.50;14.65;;;;;;;30.00;66.97;97790.16;4952633;28;20125;-68
2023/06/16 03:29:09;;;;;;;24.95;15.65;;;;;;;29.77;67.12;97778.84;4966219;28;20541;-70
2023/06/16 03:31:39;;;;;;;20.45;13.63;;;;;;;29.72;67.51;97779.06;4966541;28;20051;-69
2023/06/16 03:34:11;;;;;;;;;;;;;;;29.84;66.97;97789.97;4968431;28;20046;-68
2023/06/16 03:36:58;;;;;;;22.77;14.60;;;;;;;29.93;66.67;97776.25;4967966;28;19984;-70
2023/06/16 03:39:36;;;;;;;24.50;13.90;;;;;;;29.38;68.71;97764.69;4951019;28;20061;-68
2023/06/16 03:42:06;;;;;;;18.50;12.95;;;;;;;29.45;69.14;97778.56;4950785;28;20065;-68
2023/06/16 03:44:37;;;;;;;21.02;12.70;;;;;;;29.73;68.58;97778.72;4962004;28;20436;-67
2023/06/16 03:47:07;;;;;;;25.35;13.82;;;;;;;29.63;68.44;97775.63;4973057;28;20078;-69
2023/06/16 03:49:36;;;;;;;21.65;12.65;;;;;;;29.95;67.93;97782.97;4968614;28;20057;-69
2023/06/16 03:52:06;;;;;;;22.67;13.13;;;;;;;29.64;68.96;97775.31;4958003;28;20066;-68
2023/06/16 03:54:36;;;;;;;21.10;12.90;;;;;;;29.72;69.91;97765.41;4975817;28;20074;-68
2023/06/16 03:57:06;;;;;;;21.58;12.80;;;;;;;29.78;69.09;97774.97;4967003;28;20051;-69
2023/06/16 03:59:36;;;;;;;17.85;11.68;;;;;;;29.74;68.98;97771.34;4966420;28;20053;-69
2023/06/16 04:02:08;;;;;;;18.42;11.30;;;;;;;29.77;68.19;97773.38;4984395;28;20054;-70
2023/06/16 04:04:45;;;;;;;17.35;11.15;;;;;;;29.86;69.03;97765.88;4963094;28;20049;-69
2023/06/16 04:07:18;;;;;;;18.95;12.98;;;;;;;30.12;67.58;97766.34;4964683;28;20042;-71
2023/06/16 04:09:50;;;;;;;24.42;14.52;;;;;;;30.13;67.08;97759.75;4960774;28;20730;-69
2023/06/16 04:12:20;;;;;;;23.70;14.98;;;;;;;30.00;67.69;97755.44;4948683;28;20461;-68
2023/06/16 04:14:49;;;;;;;20.42;15.02;;;;;;;30.16;66.55;97763.72;4975256;28;20055;-69
2023/06/16 04:17:19;;;;;;;26.45;16.08;;;;;;;30.34;65.74;97765.88;4967906;28;20057;-70
2023/06/16 04:19:50;;;;;;;28.10;16.13;;;;;;;30.52;64.72;97762.91;4967725;28;20057;-69
2023/06/16 04:22:19;;;;;;;26.85;16.73;;;;;;;30.61;65.94;97771.75;4975010;28;20654;-70
2023/06/16 04:24:53;;;;;;;26.60;16.50;;;;;;;30.55;65.35;97762.19;4964514;28;20054;-68
2023/06/16 04:28:01;;;;;;;23.38;16.58;;;;;;;30.70;62.94;97764.22;4965499;28;20144;-70
2023/06/16 04:30:50;;;;;;;27.55;17.45;;;;;;;31.03;59.54;97758.53;4946117;28;20158;-71
2023/06/16 04:33:22;;;;;;;36.90;19.10;;;;;;;31.47;58.78;97764.78;4948508;28;20055;-71
2023/06/16 04:35:53;;;;;;;38.85;17.52;;;;;;;31.85;56.58;97759.53;4948178;28;20054;-71
2023/06/16 04:38:25;;;;;;;32.17;16.30;;;;;;;32.22;59.25;97772.97;4947663;28;20098;-70
2023/06/16 04:40:58;;;;;;;26.65;16.90;;;;;;;31.82;60.27;97764.94;4948857;28;20038;-73
2023/06/16 04:43:28;;;;;;;27.63;16.77;;;;;;;31.69;60.80;97764.22;4964715;28;20046;-72
2023/06/16 04:45:59;;;;;;;27.35;17.77;;;;;;;31.32;61.92;97763.63;4959522;28;20457;-71
2023/06/16 04:48:31;;;;;;;29.50;19.60;;;;;;;31.27;60.38;97760.34;4961626;28;20149;-68
2023/06/16 04:51:01;;;;;;;28.83;18.05;;;;;;;31.20;61.09;97759.00;4979281;28;20533;-71
2023/06/16 04:53:31;;;;;;;26.48;18.25;;;;;;;31.13;61.29;97769.78;4617034;28;9999900;-71
2023/06/16 04:56:01;;;;;;;33.42;18.98;;;;;;;31.04;63.44;97769.13;4947064;28;20050;-71
2023/06/16 04:58:31;;;;;;;31.33;17.38;;;;;;;31.00;63.29;97770.97;4951848;28;20424;-69
2023/06/16 05:01:00;;;;;;;30.08;17.83;;;;;;;30.93;65.09;97767.22;4966763;28;20088;-69
2023/06/16 05:03:31;;;;;;;34.15;18.13;;;;;;;30.75;63.30;97767.50;4983859;28;20054;-71
2023/06/16 05:06:00;;;;;;;26.80;16.73;;;;;;;30.91;63.57;97777.69;4969495;28;20080;-71
2023/06/16 05:08:29;;;;;;;28.77;17.40;;;;;;;30.83;65.34;97775.91;4977606;28;20050;-71
2023/06/16 05:10:59;;;;;;;24.65;16.95;;;;;;;30.77;63.46;97765.22;4969567;28;20137;-72
2023/06/16 05:13:33;;;;;;;30.77;17.92;;;;;;;30.77;63.63;97765.22;4967596;28;20043;-72
2023/06/16 05:16:05;;;;;;;26.13;15.98;;;;;;;30.88;62.91;97762.78;4960157;28;20134;-73
2023/06/16 05:18:36;;;;;;;25.52;15.40;;;;;;;30.97;62.50;97766.16;4968278;28;20189;-70
2023/06/16 05:21:06;;;;;;;23.60;14.55;;;;;;;31.06;61.28;97772.31;4963877;28;20049;-70
2023/06/16 05:23:36;;;;;;;21.05;13.48;;;;;;;30.99;63.54;97777.53;4965234;28;20050;-70
2023/06/16 05:26:07;;;;;;;29.85;15.00;;;;;;;30.93;62.19;97781.69;4962957;28;20109;-69
2023/06/16 05:28:36;;;;;;;32.60;16.55;;;;;;;31.11;63.11;97776.75;4960551;28;20066;-67
2023/06/16 05:31:07;;;;;;;27.38;15.63;;;;;;;31.05;63.01;97776.19;4978757;28;20062;-69
2023/06/16 05:33:37;;;;;;;25.35;15.90;;;;;;;31.11;62.34;97774.78;4972203;28;20061;-69
2023/06/16 05:36:07;;;;;;;27.83;13.25;;;;;;;31.07;64.00;97773.13;4967500;28;20113;-70
2023/06/16 05:38:38;;;;;;;20.83;11.82;;;;;;;31.03;63.53;97778.47;4970983;28;20047;-70
2023/06/16 05:41:07;;;;;;;19.70;11.52;;;;;;;31.21;61.46;97774.28;4968143;28;20124;-70
2023/06/16 05:43:40;;;;;;;24.42;10.50;;;;;;;31.19;62.61;97773.84;4969317;28;20061;-68
2023/06/16 05:46:11;;;;;;;20.45;9.38;;;;;;;31.13;61.64;97774.44;4978509;28;20055;-70
2023/06/16 05:48:41;;;;;;;21.02;8.93;;;;;;;31.39;60.86;97784.91;4970547;28;20050;-72
2023/06/16 05:51:14;;;;;;;29.40;9.07;;;;;;;31.79;62.70;97779.31;4944701;28;20038;-70
2023/06/16 05:53:45;;;;;;;22.08;7.38;;;;;;;31.74;61.18;97776.84;4958738;28;20049;-71
2023/06/16 05:56:16;;;;;;;19.00;7.30;;;;;;;31.64;61.59;97783.66;4968715;28;20046;-71
2023/06/16 05:58:45;;;;;;;18.10;6.93;;;;;;;31.81;58.98;97777.03;4968103;28;20100;-73
2023/06/16 06:01:15;;;;;;;18.10;7.18;;;;;;;32.04;60.36;97762.31;4967642;28;20097;-70
2023/06/16 06:03:47;;;;;;;12.35;5.68;;;;;;;32.19;60.95;97766.22;4970941;28;20058;-70
2023/06/16 06:06:19;;;;;;;13.43;5.85;;;;;;;32.22;60.00;97757.28;4966609;28;20078;-71
2023/06/16 06:08:50;;;;;;;18.92;6.38;;;;;;;32.30;58.27;97761.00;4966969;28;20521;-69
2023/06/16 06:11:22;;;;;;;20.05;6.90;;;;;;;32.47;56.84;97769.63;4962795;28;20054;-71
2023/06/16 06:13:51;;;;;;;17.30;6.00;;;;;;;32.58;57.85;97755.31;4969219;28;20077;-69
2023/06/16 06:16:22;;;;;;;22.10;6.80;;;;;;;32.68;57.02;97763.03;4968253;28;20479;-71
2023/06/16 06:18:52;;;;;;;13.50;5.82;;;;;;;32.72;58.72;97761.94;4979300;28;20105;-70
2023/06/16 06:21:24;;;;;;;14.77;6.13;;;;;;;32.68;58.80;97766.56;4953926;28;20589;-69
2023/06/16 06:23:54;;;;;;;14.23;5.88;;;;;;;32.64;56.55;97762.16;4971011;28;20105;-69
2023/06/16 06:26:24;;;;;;;28.30;6.95;;;;;;;32.68;56.52;97766.56;4944388;28;20046;-74
2023/06/16 06:28:54;;;;;;;16.38;6.10;;;;;;;32.67;58.51;97761.44;4971037;28;20042;-70
2023/06/16 06:31:23;;;;;;;22.38;7.00;;;;;;;32.64;59.25;97757.47;4968670;28;20097;-71
2023/06/16 06:33:53;;;;;;;21.40;5.63;;;;;;;32.46;59.57;97753.53;4969835;28;20437;-69
2023/06/16 06:36:26;;;;;;;16.02;6.50;;;;;;;32.34;60.85;97748.16;4967859;28;20474;-70
2023/06/16 06:38:58;;;;;;;14.10;6.50;;;;;;;32.53;58.16;97750.91;4968189;28;20047;-70
2023/06/16 06:41:28;;;;;;;19.33;7.00;;;;;;;32.61;58.88;97741.72;4970370;28;20053;-71
2023/06/16 06:44:06;;;;;;;20.92;6.68;;;;;;;32.67;56.70;97747.72;4961570;28;20078;-72
2023/06/16 06:46:48;;;;;;;12.05;5.82;;;;;;;32.84;59.23;97737.09;4965294;28;20050;-73
2023/06/16 06:49:19;;;;;;;17.00;6.35;;;;;;;32.77;59.32;97736.97;4968018;28;20062;-71
2023/06/16 06:51:50;;;;;;;15.82;6.10;;;;;;;32.80;58.32;97736.25;4977032;28;20069;-70
2023/06/16 06:54:19;;;;;;;12.05;5.93;;;;;;;32.71;59.73;97743.88;4975387;28;20061;-70
2023/06/16 06:56:48;;;;;;;15.73;6.72;;;;;;;32.71;60.03;97743.88;4977387;28;20042;-70
2023/06/16 06:59:18;;;;;;;27.05;7.28;;;;;;;32.66;61.15;97737.91;4977805;28;20045;-71
2023/06/16 07:01:47;;;;;;;20.08;6.40;;;;;;;32.59;58.81;97738.53;4977570;28;20050;-71
2023/06/16 07:04:16;;;;;;;13.60;6.35;;;;;;;32.50;60.27;97732.44;4976829;28;20484;-70
2023/06/16 07:06:46;;;;;;;18.98;6.75;;;;;;;32.78;57.19;97722.09;4977711;28;20047;-69
2023/06/16 07:09:15;;;;;;;19.35;6.72;;;;;;;32.74;61.37;97721.25;4976377;28;20050;-70
2023/06/16 07:11:58;;;;;;;18.47;7.13;;;;;;;32.71;60.49;97724.69;4975467;28;20053;-72
2023/06/16 07:14:29;;;;;;;17.05;6.55;;;;;;;32.85;60.61;97719.50;4977036;28;20375;-70
2023/06/16 07:17:01;;;;;;;22.83;8.10;;;;;;;32.97;55.73;97713.84;4973456;28;20058;-70
2023/06/16 07:19:30;;;;;;;22.08;6.78;;;;;;;33.16;57.15;97710.31;4977274;28;20052;-71
2023/06/16 07:22:00;;;;;;;17.75;6.38;;;;;;;33.20;59.90;97719.41;4976393;28;20078;-70
2023/06/16 07:24:30;;;;;;;13.07;6.00;;;;;;;33.08;59.87;97716.00;4982847;28;20061;-72
2023/06/16 07:27:01;;;;;;;17.92;6.85;;;;;;;33.09;60.05;97701.13;4962404;28;20050;-69
2023/06/16 07:29:31;;;;;;;21.23;6.68;;;;;;;33.10;59.50;97702.72;4968510;28;20050;-68
2023/06/16 07:32:00;;;;;;;16.98;6.80;;;;;;;32.98;58.96;97696.22;4975020;28;20828;-68
2023/06/16 07:34:30;;;;;;;18.13;6.93;;;;;;;33.14;60.41;97700.84;4978450;28;20120;-69
2023/06/16 07:37:00;;;;;;;15.50;7.07;;;;;;;33.02;60.65;97704.53;4973665;28;20117;-70
2023/06/16 07:39:31;;;;;;;14.90;6.68;;;;;;;32.92;61.05;97699.66;4974080;28;20043;-70
2023/06/16 07:42:00;;;;;;;14.18;6.30;;;;;;;32.87;61.94;97689.75;4971200;28;20078;-69
2023/06/16 07:44:29;;;;;;;15.68;5.95;;;;;;;32.87;63.15;97692.50;4977869;28;20126;-70
2023/06/16 07:46:58;;;;;;;20.58;6.68;;;;;;;32.85;61.82;97685.78;4967148;28;20488;-69
2023/06/16 07:49:29;;;;;;;22.98;7.50;;;;;;;32.79;60.77;97685.31;4982862;28;20077;-71
2023/06/16 07:51:59;;;;;;;17.42;6.88;;;;;;;32.90;58.42;97690.97;4975431;28;20056;-69
2023/06/16 07:54:28;;;;;;;18.75;6.63;;;;;;;32.88;60.58;97683.09;4971685;28;20438;-69
2023/06/16 07:56:58;;;;;;;22.25;6.43;;;;;;;33.01;60.29;97680.22;4968723;28;20051;-68
2023/06/16 07:59:27;;;;;;;21.55;7.25;;;;;;;32.76;61.02;97675.03;4965644;28;20062;-68
2023/06/16 08:01:57;;;;;;;14.27;6.45;;;;;;;32.69;61.39;97676.84;4968781;28;20061;-69
2023/06/16 08:04:29;;;;;;;18.10;7.03;;;;;;;32.64;60.71;97674.41;4975428;28;20180;-69
2023/06/16 08:06:59;;;;;;;19.45;7.05;;;;;;;32.66;61.01;97678.38;4977231;28;20050;-67
2023/06/16 08:09:29;;;;;;;17.27;6.85;;;;;;;32.71;59.74;97672.59;4970114;28;20145;-70
2023/06/16 08:11:58;;;;;;;13.93;6.38;;;;;;;32.75;62.21;97672.69;4976167;28;20046;-69
2023/06/16 08:14:30;;;;;;;17.33;6.30;;;;;;;32.85;62.34;97669.31;4977946;28;20509;-67
2023/06/16 08:17:00;;;;;;;15.68;5.80;;;;;;;32.90;62.32;97660.78;4979049;28;20050;-68
2023/06/16 08:19:29;;;;;;;15.07;6.90;;;;;;;32.76;61.20;97663.28;4966632;28;20057;-68
2023/06/16 08:22:00;;;;;;;15.55;6.30;;;;;;;32.85;59.92;97666.56;4965777;28;20424;-67
2023/06/16 08:24:30;;;;;;;12.80;6.47;;;;;;;33.00;59.00;97660.22;4982924;28;20515;-68
2023/06/16 08:27:01;;;;;;;15.27;5.78;;;;;;;32.97;60.64;97656.22;4977859;28;20074;-70
2023/06/16 08:29:30;;;;;;;16.13;5.57;;;;;;;32.91;59.70;97654.97;4975284;28;20057;-71
2023/06/16 08:32:01;;;;;;;13.98;5.90;;;;;;;32.76;57.02;97641.31;4976502;28;20142;-69
2023/06/16 08:34:31;;;;;;;14.25;5.93;;;;;;;32.58;58.64;97643.69;4978166;28;20081;-68
2023/06/16 08:37:01;;;;;;;20.80;5.72;;;;;;;32.48;60.50;97636.88;4978253;28;20066;-68
2023/06/16 08:39:44;;;;;;;22.33;6.45;;;;;;;32.33;61.70;97629.50;4969865;28;20039;-68
2023/06/16 08:42:16;;;;;;;;;;;;;;;32.15;64.56;97635.78;4956989;28;20761;-67
2023/06/16 08:44:46;;;;;;;16.50;5.85;;;;;;;32.14;63.48;97631.44;4973350;28;19980;-69
2023/06/16 08:47:16;;;;;;;17.35;7.97;;;;;;;32.07;64.35;97632.88;4977882;28;20447;-70
2023/06/16 08:49:46;;;;;;;15.07;5.85;;;;;;;31.89;63.67;97630.88;4976913;28;20046;-72
2023/06/16 08:52:18;;;;;;;18.67;5.60;;;;;;;31.86;61.66;97626.94;4964780;28;20057;-69
2023/06/16 08:55:16;;;;;;;17.73;6.30;;;;;;;31.59;61.07;97608.69;4977002;28;20053;-68
2023/06/16 08:57:52;;;;;;;20.80;6.05;;;;;;;31.62;61.16;97613.44;4973925;28;20360;-68
2023/06/16 09:00:24;;;;;;;18.10;6.38;;;;;;;31.69;62.10;97612.84;4974948;28;20109;-70
2023/06/16 09:02:55;;;;;;;16.25;6.53;;;;;;;31.67;62.56;97613.19;4952839;28;20050;-71
2023/06/16 09:05:26;;;;;;;20.98;7.13;;;;;;;31.73;63.59;97602.75;4968670;28;20498;-70
2023/06/16 09:07:57;;;;;;;16.73;6.85;;;;;;;31.70;63.93;97598.78;4978539;28;20061;-70
2023/06/16 09:10:26;;;;;;;19.67;6.93;;;;;;;31.72;64.67;97596.47;4951222;28;20054;-70
2023/06/16 09:13:00;;;;;;;23.55;7.00;;;;;;;31.59;65.46;97586.78;4975477;28;20083;-70
2023/06/16 09:15:33;;;;;;;22.17;7.45;;;;;;;31.38;64.81;97583.53;4976458;28;20056;-70
2023/06/16 09:18:08;;;;;;;;;;;;;;;31.28;62.87;97573.94;4969032;28;20046;-68
2023/06/16 09:20:44;;;;;;;19.52;7.20;;;;;;;31.33;64.07;97572.88;4961795;28;20201;-71
2023/06/16 09:23:14;;;;;;;14.02;7.15;;;;;;;31.30;65.45;97577.09;4964447;28;20564;-70
2023/06/16 09:25:43;;;;;;;14.82;6.47;;;;;;;31.34;64.40;97577.16;4983870;28;20128;-70
2023/06/16 09:28:13;;;;;;;13.75;6.72;;;;;;;31.34;64.99;97577.97;4963551;28;20061;-70
2023/06/16 09:30:43;;;;;;;16.15;7.13;;;;;;;31.42;67.02;97576.22;4968684;28;20050;-69
2023/06/16 09:33:15;;;;;;;17.20;6.07;;;;;;;31.40;66.45;97564.81;4975721;28;20091;-69
2023/06/16 09:35:45;;;;;;;18.33;6.35;;;;;;;31.39;65.30;97557.75;4962591;28;20053;-69
2023/06/16 09:38:15;;;;;;;13.65;5.60;;;;;;;31.36;65.16;97556.53;4977037;28;20046;-69
2023/06/16 09:40:45;;;;;;;15.40;5.80;;;;;;;31.29;64.61;97556.34;4974375;28;20054;-67
2023/06/16 09:43:15;;;;;;;14.00;5.93;;;;;;;31.29;64.01;97559.09;4973345;28;20061;-70
2023/06/16 09:45:45;;;;;;;14.30;4.85;;;;;;;31.36;62.53;97553.00;4984864;28;20559;-68
2023/06/16 09:48:14;;;;;;;16.17;6.13;;;;;;;31.45;62.42;97553.59;4979317;28;20053;-70
2023/06/16 09:50:44;;;;;;;15.18;5.90;;;;;;;31.49;64.25;97554.47;4978939;28;20057;-68
2023/06/16 09:53:17;;;;;;;15.43;5.15;;;;;;;31.52;63.54;97546.31;4976608;28;20113;-68
2023/06/16 09:55:47;;;;;;;12.68;5.35;;;;;;;31.54;64.48;97537.75;4979546;28;20508;-68
2023/06/16 09:58:16;;;;;;;19.85;5.45;;;;;;;31.69;60.73;97539.66;4979964;28;20065;-68
2023/06/16 10:01:01;;;;;;;13.70;5.30;;;;;;;31.76;60.42;97533.56;4971321;28;20053;-69
2023/06/16 10:03:34;;;;;;;13.60;5.72;;;;;;;31.60;57.88;97530.91;4965040;28;20046;-69
2023/06/16 10:06:09;;;;;;;17.05;5.28;;;;;;;32.04;54.46;97532.19;4973098;28;20116;-70
2023/06/16 10:08:41;;;;;;;14.73;5.18;;;;;;;31.89;55.41;97529.53;4973683;28;20161;-68
2023/06/16 10:11:14;;;;;;;16.33;6.10;;;;;;;32.01;58.27;97526.66;4978469;28;20045;-67
2023/06/16 10:13:51;;;;;;;8.15;4.40;;;;;;;31.57;54.19;97520.66;4968410;28;20104;-67
2023/06/16 10:16:25;;;;;;;18.20;5.55;;;;;;;32.05;56.60;97519.28;4980334;28;20050;-68
2023/06/16 10:19:00;;;;;;;12.68;5.68;;;;;;;32.56;56.95;97517.16;4969310;28;20057;-68
2023/06/16 10:21:31;;;;;;;13.73;5.00;;;;;;;32.84;53.66;97517.66;4974173;28;20113;-70
2023/06/16 10:24:04;;;;;;;17.08;5.95;;;;;;;33.13;52.03;97512.63;4978896;28;20105;-70
2023/06/16 10:26:34;;;;;;;26.60;6.95;;;;;;;33.23;52.40;97512.81;4978409;28;20058;-71
2023/06/16 10:29:04;;;;;;;19.02;6.97;;;;;;;33.24;51.56;97510.84;4979186;28;20367;-72
2023/06/16 10:31:36;;;;;;;18.23;5.18;;;;;;;33.24;53.28;97502.63;4976505;28;20042;-73
2023/06/16 10:34:05;;;;;;;18.77;5.88;;;;;;;33.33;53.20;97506.69;4969744;28;20141;-73
2023/06/16 10:36:38;;;;;;;22.88;5.93;;;;;;;33.42;52.93;97509.94;4981563;28;20059;-74
2023/06/16 10:39:13;;;;;;;16.55;5.05;;;;;;;33.44;52.00;97506.84;4975508;28;20516;-69
2023/06/16 10:41:54;;;;;;;19.52;5.45;;;;;;;33.42;50.52;97500.91;4978707;28;20137;-68
2023/06/16 10:44:31;;;;;;;12.27;4.80;;;;;;;33.42;49.96;97496.22;4962572;28;20141;-72
2023/06/16 10:47:13;;;;;;;19.25;4.85;;;;;;;33.47;50.01;97497.84;4974186;28;20058;-68
2023/06/16 10:50:02;;;;;;;22.00;5.85;;;;;;;33.55;51.81;97502.28;4974300;28;20153;-69
2023/06/16 10:52:52;;;;;;;17.77;6.43;;;;;;;33.55;51.16;97493.28;4975616;28;20420;-69
2023/06/16 10:55:37;;;;;;;23.17;6.23;;;;;;;33.54;50.29;97486.19;4952872;28;20057;-70
2023/06/16 10:58:16;;;;;;;19.02;5.78;;;;;;;33.52;49.54;97481.06;4977676;28;20050;-70
2023/06/16 11:00:59;;;;;;;11.95;4.80;;;;;;;33.53;49.53;97479.09;4964593;28;20101;-72
2023/06/16 11:03:38;;;;;;;17.45;5.78;;;;;;;33.59;50.66;97469.38;4976557;28;20061;-74
2023/06/16 11:06:09;;;;;;;14.05;5.10;;;;;;;33.62;50.43;97480.41;4979625;28;20055;-71
2023/06/16 11:08:58;;;;;;;17.60;5.00;;;;;;;33.63;49.85;97465.53;4977644;28;20478;-72
2023/06/16 11:11:36;;;;;;;15.38;4.85;;;;;;;33.62;50.65;97458.44;4972983;28;20051;-72
2023/06/16 11:14:07;;;;;;;21.42;4.90;;;;;;;33.59;51.17;97455.66;4974720;28;20106;-70
2023/06/16 11:16:37;;;;;;;14.25;4.18;;;;;;;33.54;47.63;97454.03;4973403;28;20073;-69
2023/06/16 11:19:06;;;;;;;10.73;4.00;;;;;;;33.53;49.49;97449.69;4971530;28;20089;-72
2023/06/16 11:21:36;;;;;;;12.80;4.65;;;;;;;33.52;50.58;97448.09;4976686;28;20776;-71
2023/06/16 11:24:12;;;;;;;12.50;4.35;;;;;;;33.53;48.90;97446.94;4968243;28;20078;-71
2023/06/16 11:26:42;;;;;;;18.50;5.03;;;;;;;33.57;47.80;97442.28;4975571;28;20046;-72
2023/06/16 11:29:11;;;;;;;11.65;4.18;;;;;;;33.57;46.93;97436.00;4966450;28;20085;-71
2023/06/16 11:31:41;;;;;;;11.80;4.45;;;;;;;33.58;47.42;97434.84;4978614;28;20092;-71
2023/06/16 11:34:10;;;;;;;16.13;4.55;;;;;;;33.54;48.99;97426.56;4959391;28;20039;-72
2023/06/16 11:36:46;;;;;;;15.88;5.07;;;;;;;33.51;47.47;97430.03;4973351;28;20050;-72
2023/06/16 11:39:19;;;;;;;13.00;4.22;;;;;;;33.50;48.80;97433.97;4979795;28;20043;-72
2023/06/16 11:41:55;;;;;;;15.35;4.63;;;;;;;33.48;47.94;97435.50;4966816;28;20109;-72
2023/06/16 11:44:31;;;;;;;17.10;4.32;;;;;;;33.44;47.76;97438.19;4975991;28;20160;-72